Terminal Aerodrome Forecast
Issued by NWS

Home | Current Version | Previous Version | Text Only | Print | Product List | Glossary Off
Versions: 1 2 3 4 5 6 7 8 9 10 11 12 13 14 15 16 17 18 19 20 21 22 23 24 25 26 27 28 29

562
FTUS43 KABR 231737
TAFATY
TAF
KATY 231737Z 2318/2418 27005KT 4SM BR OVC003
     FM232200 27006KT P6SM OVC010
     FM240200 27004KT 1 1/2SM BR BKN010
     FM241000 28004KT 3/4SM BR BKN008
     FM241400 22004KT 3/4SM BR BKN008
     FM241700 21006KT P6SM SCT030=

USA.gov is the U.S. government's official web portal to all federal, state and local government web resources and services.